Time;durP1;ratioP1;P1;durP2;ratioP2;P2;SDS_P1;SDS_P2;PMS_P1;PMS_P2;Temp;Humidity;BMP_temperature;BMP_pressure;BME280_temperature;BME280_humidity;BME280_pressure;Samples;Min_cycle;Max_cycle;Signal;HPM_P1;HPM_P2
2023/09/07 00:00:19;;;;;;;2.08;0.70;;;;;;;11.12;55.34;100345.47;4918527;29;20043;-79
2023/09/07 00:02:45;;;;;;;1.88;0.80;;;;;;;11.17;55.20;100357.56;4928307;29;20063;-74
2023/09/07 00:05:13;;;;;;;2.13;0.70;;;;;;;11.00;55.45;100337.66;4911825;29;20494;-74
2023/09/07 00:07:39;;;;;;;1.33;0.60;;;;;;;11.22;55.53;100376.69;4927782;29;20074;-76
2023/09/07 00:10:05;;;;;;;1.85;0.70;;;;;;;11.25;55.40;100387.09;4912154;29;20050;-75
2023/09/07 00:12:32;;;;;;;2.58;0.70;;;;;;;11.09;55.36;100378.44;4927996;29;20054;-77
2023/09/07 00:14:59;;;;;;;2.38;0.68;;;;;;;11.04;55.43;100359.34;4929525;29;20630;-75
2023/09/07 00:17:25;;;;;;;4.90;0.95;;;;;;;10.92;55.63;100349.84;4944353;29;20040;-76
2023/09/07 00:19:52;;;;;;;1.88;0.70;;;;;;;11.09;56.14;100391.47;4928037;29;20055;-77
2023/09/07 00:22:38;;;;;;;2.13;0.63;;;;;;;11.13;56.27;100403.63;4928828;29;20044;-78
2023/09/07 00:25:15;;;;;;;0.95;0.60;;;;;;;11.08;56.17;100390.59;4928570;29;20047;-75
2023/09/07 00:27:41;;;;;;;0.75;0.50;;;;;;;10.71;56.67;100328.16;4912176;29;20056;-74
2023/09/07 00:30:09;;;;;;;0.90;0.60;;;;;;;11.08;56.75;100401.03;4929170;29;20047;-77
2023/09/07 00:32:48;;;;;;;2.75;0.70;;;;;;;10.73;56.63;100348.97;4929182;29;20054;-76
2023/09/07 00:35:25;;;;;;;4.78;0.80;;;;;;;10.77;56.87;100356.78;4944247;28;20047;-77
2023/09/07 00:37:54;;;;;;;1.15;0.70;;;;;;;11.00;56.94;100402.75;4926272;29;20058;-75
2023/09/07 00:40:22;;;;;;;3.63;0.70;;;;;;;10.98;57.05;100405.38;4944035;28;20035;-75
2023/09/07 00:42:48;;;;;;;2.78;0.70;;;;;;;10.78;57.25;100368.94;4942866;28;20043;-75
2023/09/07 00:45:14;;;;;;;2.20;0.70;;;;;;;10.82;57.22;100381.09;4945194;28;20036;-76
2023/09/07 00:47:40;;;;;;;1.92;0.65;;;;;;;10.68;57.61;100359.41;4911883;29;20065;-75
2023/09/07 00:50:07;;;;;;;6.15;0.60;;;;;;;11.02;57.52;100418.41;4927759;29;20514;-75
2023/09/07 00:52:36;;;;;;;1.45;0.77;;;;;;;10.85;57.83;100395.81;4927722;29;20048;-74
2023/09/07 00:55:04;;;;;;;3.17;0.80;;;;;;;10.91;58.23;100414.06;4893540;29;20429;-75
2023/09/07 00:57:30;;;;;;;3.13;0.60;;;;;;;10.85;58.15;100399.31;4927445;29;20047;-75
2023/09/07 00:59:56;;;;;;;1.48;0.90;;;;;;;10.92;58.16;100412.34;4925889;29;20533;-76
2023/09/07 01:02:23;;;;;;;2.20;0.65;;;;;;;10.67;58.24;100388.91;4929613;29;20181;-76
2023/09/07 01:04:51;;;;;;;2.85;0.70;;;;;;;10.79;58.31;100399.31;4927557;29;20134;-75
2023/09/07 01:07:23;;;;;;;0.50;0.50;;;;;;;10.81;58.56;100399.31;4930203;29;20401;-76
2023/09/07 01:09:56;;;;;;;5.38;1.00;;;;;;;10.97;58.75;100429.69;4912788;29;20099;-76
2023/09/07 01:12:22;;;;;;;2.15;0.60;;;;;;;10.92;58.58;100422.75;4913919;29;20376;-76
2023/09/07 01:14:48;;;;;;;1.13;0.65;;;;;;;10.95;58.89;100438.34;4928137;29;20058;-77
2023/09/07 01:17:15;;;;;;;3.63;0.68;;;;;;;10.69;58.75;100393.22;4911587;29;20071;-78
2023/09/07 01:19:41;;;;;;;0.65;0.57;;;;;;;10.70;58.92;100409.72;4927888;29;20043;-77
2023/09/07 01:22:09;;;;;;;3.72;0.77;;;;;;;10.79;59.05;100417.53;4913287;29;20507;-76
2023/09/07 01:24:38;;;;;;;3.70;0.90;;;;;;;10.55;59.13;100382.81;4943673;28;20071;-77
2023/09/07 01:27:05;;;;;;;1.75;0.68;;;;;;;10.64;58.84;100399.31;4926062;29;20099;-75
2023/09/07 01:29:31;;;;;;;1.27;0.82;;;;;;;10.80;59.07;100427.06;4927252;29;20047;-75
2023/09/07 01:31:58;;;;;;;2.05;0.65;;;;;;;10.77;58.99;100423.59;4927317;29;20039;-76
2023/09/07 01:34:24;;;;;;;1.35;0.60;;;;;;;10.68;59.08;100414.06;4926893;29;20395;-76
2023/09/07 01:36:50;;;;;;;3.25;0.68;;;;;;;10.69;59.14;100427.06;4928756;29;20046;-76
2023/09/07 01:39:16;;;;;;;2.75;0.90;;;;;;;10.65;59.66;100438.34;4892309;29;20122;-76
2023/09/07 01:41:43;;;;;;;2.15;1.05;;;;;;;10.55;59.44;100431.41;4922838;29;20058;-75
2023/09/07 01:44:09;;;;;;;1.48;0.82;;;;;;;10.32;60.08;100393.19;4891393;29;20048;-77
2023/09/07 01:46:36;;;;;;;1.65;0.93;;;;;;;10.35;60.41;100401.00;4923536;28;20039;-77
2023/09/07 01:49:02;;;;;;;4.07;1.20;;;;;;;10.67;60.44;100457.44;4920393;29;20095;-75
2023/09/07 01:51:28;;;;;;;1.55;1.02;;;;;;;10.54;60.55;100435.72;4939543;28;20048;-77
2023/09/07 01:53:55;;;;;;;1.73;1.10;;;;;;;10.50;60.38;100444.38;4921843;29;20103;-76
2023/09/07 01:56:21;;;;;;;2.58;0.98;;;;;;;10.62;60.72;100453.09;4908262;29;20111;-78
2023/09/07 01:58:47;;;;;;;3.40;1.10;;;;;;;10.49;60.66;100442.66;4938524;29;20513;-76
2023/09/07 02:01:31;;;;;;;4.07;1.30;;;;;;;10.19;60.87;100392.28;4906421;29;20044;-76
2023/09/07 02:03:58;;;;;;;2.58;1.10;;;;;;;10.25;61.51;100404.44;4937295;28;20134;-75
2023/09/07 02:06:24;;;;;;;3.90;0.95;;;;;;;10.38;61.14;100433.94;4922355;29;20473;-77
2023/09/07 02:08:50;;;;;;;1.65;0.80;;;;;;;10.54;61.65;100464.34;4923167;29;20036;-77
2023/09/07 02:11:20;;;;;;;1.27;1.05;;;;;;;10.55;61.26;100468.69;4906242;29;20039;-79
2023/09/07 02:13:55;;;;;;;3.78;1.05;;;;;;;10.18;61.51;100419.16;4925739;29;20039;-80
2023/09/07 02:16:29;;;;;;;1.95;1.10;;;;;;;10.44;61.77;100454.81;4920880;29;20055;-77
2023/09/07 02:19:04;;;;;;;2.38;1.08;;;;;;;10.54;61.91;100468.69;4925120;29;21469;-77
2023/09/07 02:21:30;;;;;;;2.35;1.10;;;;;;;10.12;62.00;100400.94;4892173;29;20051;-78
2023/09/07 02:23:56;;;;;;;2.45;1.10;;;;;;;10.25;61.90;100436.53;4923195;29;20047;-76
2023/09/07 02:26:22;;;;;;;2.72;1.00;;;;;;;10.46;62.21;100478.22;4921581;29;20047;-76
2023/09/07 02:28:48;;;;;;;1.67;0.80;;;;;;;10.33;62.37;100466.88;4939484;28;20048;-77
2023/09/07 02:31:14;;;;;;;2.15;0.80;;;;;;;10.47;62.79;100488.63;4906201;29;20425;-75
2023/09/07 02:33:40;;;;;;;2.45;1.40;;;;;;;10.31;62.57;100461.66;4923787;29;20048;-76
2023/09/07 02:36:06;;;;;;;1.60;0.88;;;;;;;10.43;62.68;100484.28;4923915;29;20048;-82
2023/09/07 02:38:32;;;;;;;0.98;0.75;;;;;;;10.31;63.02;100463.38;4904675;29;20059;-78
2023/09/07 02:40:59;;;;;;;0.95;0.80;;;;;;;9.79;62.81;100386.97;4922176;29;20143;-76
2023/09/07 02:43:25;;;;;;;3.20;1.00;;;;;;;10.35;62.57;100488.56;4939809;28;20122;-79
2023/09/07 02:45:51;;;;;;;5.20;1.30;;;;;;;10.29;63.46;100480.72;4925793;29;20095;-76
2023/09/07 02:48:20;;;;;;;2.53;0.90;;;;;;;10.19;63.09;100466.81;4925658;29;20434;-75
2023/09/07 02:50:50;;;;;;;3.35;1.48;;;;;;;10.16;63.53;100475.50;4924166;29;20043;-76
2023/09/07 02:53:16;;;;;;;2.45;0.80;;;;;;;10.32;63.58;100499.84;4925069;29;20111;-76
2023/09/07 02:55:42;;;;;;;1.67;0.90;;;;;;;10.21;63.58;100484.19;4910096;29;20043;-75
2023/09/07 02:58:08;;;;;;;2.47;0.90;;;;;;;10.17;63.50;100485.03;4928925;29;20050;-75
2023/09/07 03:00:34;;;;;;;1.42;0.80;;;;;;;10.29;63.54;100506.72;4929141;29;20052;-76
2023/09/07 03:03:02;;;;;;;1.02;0.80;;;;;;;10.34;63.29;100507.63;4951041;28;20082;-74
2023/09/07 03:05:28;;;;;;;1.10;1.00;;;;;;;10.32;63.65;100511.94;4944000;28;20036;-73
2023/09/07 03:07:54;;;;;;;2.80;0.85;;;;;;;10.20;63.82;100498.06;4909558;29;20047;-74
2023/09/07 03:10:20;;;;;;;1.48;1.02;;;;;;;10.24;63.80;100502.41;4914627;29;20040;-75
2023/09/07 03:12:47;;;;;;;2.35;1.10;;;;;;;10.30;63.96;100506.75;4921261;29;20127;-75
2023/09/07 03:15:13;;;;;;;3.83;1.88;;;;;;;10.20;63.82;100491.97;4939350;29;20040;-76
2023/09/07 03:17:41;;;;;;;3.50;1.58;;;;;;;10.41;64.08;100532.84;4905715;29;20059;-74
2023/09/07 03:20:14;;;;;;;1.85;0.90;;;;;;;10.39;64.04;100529.38;4924109;29;20051;-73
2023/09/07 03:22:44;;;;;;;1.63;0.85;;;;;;;10.47;63.99;100530.28;4905140;29;20418;-75
2023/09/07 03:25:11;;;;;;;2.90;0.95;;;;;;;10.42;63.91;100513.75;4892473;29;20035;-74
2023/09/07 03:27:38;;;;;;;1.70;1.10;;;;;;;10.59;64.27;100531.16;4934003;29;20048;-74
2023/09/07 03:30:06;;;;;;;2.20;0.90;;;;;;;10.62;64.02;100526.81;4923918;29;20050;-74
2023/09/07 03:32:33;;;;;;;2.70;1.00;;;;;;;10.60;64.13;100522.47;4922870;29;20055;-72
2023/09/07 03:35:03;;;;;;;1.83;0.90;;;;;;;10.75;63.83;100539.88;4924206;29;20036;-73
2023/09/07 03:37:29;;;;;;;2.45;1.02;;;;;;;10.81;63.83;100542.50;4939542;28;20048;-74
2023/09/07 03:39:56;;;;;;;2.75;0.93;;;;;;;10.85;63.61;100533.81;4893203;29;20035;-72
2023/09/07 03:42:22;;;;;;;3.67;1.08;;;;;;;10.95;63.83;100537.28;4925192;29;20043;-73
2023/09/07 03:44:49;;;;;;;3.88;0.98;;;;;;;10.95;63.42;100529.47;4906393;29;20050;-76
2023/09/07 03:47:16;;;;;;;4.10;0.98;;;;;;;11.07;63.40;100520.81;4926202;29;20102;-76
2023/09/07 03:49:42;;;;;;;1.60;0.85;;;;;;;11.30;63.22;100544.28;4940769;28;20047;-75
2023/09/07 03:52:09;;;;;;;1.38;0.90;;;;;;;11.16;63.10;100502.59;4923165;29;20413;-75
2023/09/07 03:54:35;;;;;;;2.47;0.98;;;;;;;11.37;63.17;100516.47;4909278;29;20078;-76
2023/09/07 03:57:02;;;;;;;2.20;0.98;;;;;;;11.56;62.92;100538.19;4925481;29;20058;-77
2023/09/07 03:59:29;;;;;;;2.22;0.95;;;;;;;11.60;62.61;100551.22;4909240;29;21149;-76
2023/09/07 04:01:56;;;;;;;2.08;1.25;;;;;;;11.50;62.26;100512.13;4927970;29;20055;-76
2023/09/07 04:04:22;;;;;;;3.22;1.10;;;;;;;11.74;62.30;100532.06;4941878;28;20040;-75
2023/09/07 04:06:48;;;;;;;3.03;1.10;;;;;;;11.71;61.92;100516.41;4942084;29;20061;-77
2023/09/07 04:09:14;;;;;;;3.20;0.88;;;;;;;12.10;61.50;100553.75;4924200;29;20084;-75
2023/09/07 04:11:40;;;;;;;2.42;0.80;;;;;;;12.15;61.54;100543.28;4924972;29;20047;-76
2023/09/07 04:14:09;;;;;;;1.52;0.88;;;;;;;12.41;61.16;100569.28;4924242;29;20038;-76
2023/09/07 04:16:38;;;;;;;2.60;1.00;;;;;;;12.46;60.86;100559.69;4923575;29;20047;-75
2023/09/07 04:19:04;;;;;;;2.58;1.00;;;;;;;12.67;60.48;100546.53;4924159;29;20509;-76
2023/09/07 04:21:29;;;;;;;5.70;1.35;;;;;;;12.77;59.95;100530.81;4923275;29;20043;-75
2023/09/07 04:23:56;;;;;;;1.85;0.95;;;;;;;13.15;60.02;100554.91;4939277;28;20116;-77
2023/09/07 04:26:22;;;;;;;2.28;0.73;;;;;;;13.25;59.38;100535.69;4939547;28;20047;-78
2023/09/07 04:28:48;;;;;;;1.92;0.90;;;;;;;13.64;58.76;100566.75;4941037;28;20062;-76
2023/09/07 04:31:14;;;;;;;1.85;1.00;;;;;;;13.66;57.86;100548.44;4925758;29;20538;-77
2023/09/07 04:33:42;;;;;;;2.25;0.85;;;;;;;13.74;57.62;100527.41;4912461;29;20047;-76
2023/09/07 04:36:11;;;;;;;2.92;0.85;;;;;;;14.18;57.10;100580.16;4927553;29;20079;-79
2023/09/07 04:38:39;;;;;;;2.20;0.90;;;;;;;14.24;56.75;100565.25;4946739;28;20048;-81
2023/09/07 04:41:09;;;;;;;1.63;0.98;;;;;;;14.59;56.33;100576.16;4917759;29;20042;-78
2023/09/07 04:43:37;;;;;;;3.58;1.10;;;;;;;14.67;55.57;100558.59;4937471;29;20487;-78
2023/09/07 04:46:07;;;;;;;1.88;0.82;;;;;;;14.84;54.96;100575.88;4921921;29;20518;-79
2023/09/07 04:48:35;;;;;;;1.67;0.80;;;;;;;15.02;54.53;100575.59;4916555;29;20097;-83
2023/09/07 04:51:06;;;;;;;2.00;0.80;;;;;;;15.16;53.94;100562.28;4912121;29;20055;-73
2023/09/07 04:53:34;;;;;;;6.95;1.00;;;;;;;15.48;53.32;100586.25;4900981;29;20080;-71
2023/09/07 04:56:02;;;;;;;2.13;1.05;;;;;;;15.73;52.73;100589.31;4912618;29;20039;-70
2023/09/07 04:58:31;;;;;;;3.35;0.95;;;;;;;16.03;52.38;100580.91;4951074;28;20047;-70
2023/09/07 05:01:05;;;;;;;1.65;0.90;;;;;;;16.51;51.89;100570.31;4930811;29;20155;-73
2023/09/07 05:03:31;;;;;;;1.30;0.90;;;;;;;17.81;51.00;100557.63;4913364;29;20054;-71
2023/09/07 05:05:57;;;;;;;2.97;0.98;;;;;;;19.78;48.35;100560.41;4943216;28;20103;-74
2023/09/07 05:08:26;;;;;;;3.15;1.05;;;;;;;21.81;45.06;100570.25;4916978;29;20120;-73
2023/09/07 05:11:00;;;;;;;1.60;0.80;;;;;;;23.49;42.21;100559.84;4927266;29;20040;-73
2023/09/07 05:13:27;;;;;;;4.53;1.30;;;;;;;24.89;39.92;100555.94;4930442;29;20139;-73
2023/09/07 05:15:56;;;;;;;4.53;1.08;;;;;;;26.21;36.37;100554.38;4925072;29;20126;-73
2023/09/07 05:18:22;;;;;;;1.13;0.90;;;;;;;27.21;34.24;100535.53;4943193;28;20052;-72
2023/09/07 05:20:51;;;;;;;2.20;1.02;;;;;;;28.32;33.35;100563.63;4945540;29;20040;-75
2023/09/07 05:23:19;;;;;;;1.00;0.90;;;;;;;29.31;31.40;100549.22;4944708;28;20043;-71
2023/09/07 05:25:47;;;;;;;3.22;1.17;;;;;;;30.12;29.73;100556.44;4909695;29;20046;-70
2023/09/07 05:28:15;;;;;;;2.05;0.95;;;;;;;30.65;28.29;100539.69;4939281;29;20071;-74
2023/09/07 05:30:42;;;;;;;3.85;1.10;;;;;;;31.49;27.34;100546.16;4893669;29;20039;-75
2023/09/07 05:33:10;;;;;;;1.77;1.02;;;;;;;32.40;25.98;100548.19;4924909;29;20043;-72
2023/09/07 05:35:36;;;;;;;6.07;1.10;;;;;;;33.17;24.66;100526.00;4942787;28;20194;-74
2023/09/07 05:38:06;;;;;;;3.05;1.20;;;;;;;33.52;24.30;100539.91;4888850;29;20046;-74
2023/09/07 05:40:43;;;;;;;4.00;1.00;;;;;;;33.98;22.77;100548.13;4945882;28;20051;-77
2023/09/07 05:43:11;;;;;;;1.85;1.17;;;;;;;34.63;22.50;100550.81;4926207;29;21381;-74
2023/09/07 05:45:40;;;;;;;3.63;1.15;;;;;;;35.06;21.32;100520.47;4928813;29;20631;-72
2023/09/07 05:48:07;;;;;;;2.30;1.00;;;;;;;35.84;21.08;100546.72;4923796;29;20044;-75
2023/09/07 05:50:35;;;;;;;7.32;1.27;;;;;;;36.42;19.92;100538.00;4925034;29;20390;-74
2023/09/07 05:53:02;;;;;;;1.48;0.98;;;;;;;37.07;19.38;100549.97;4925849;29;20195;-75
2023/09/07 05:55:28;;;;;;;2.13;1.13;;;;;;;37.30;18.43;100550.13;4942333;28;20032;-73
2023/09/07 05:57:55;;;;;;;3.55;1.20;;;;;;;37.77;18.57;100534.97;4924525;29;20047;-74
2023/09/07 06:00:23;;;;;;;1.10;0.90;;;;;;;37.90;17.73;100544.41;4912455;29;20103;-73
2023/09/07 06:02:49;;;;;;;2.63;1.13;;;;;;;37.95;17.58;100536.63;4907990;29;20044;-72
2023/09/07 06:05:16;;;;;;;2.92;1.10;;;;;;;38.27;16.69;100551.09;4940588;28;20071;-78
2023/09/07 06:07:44;;;;;;;2.10;1.02;;;;;;;38.62;16.35;100548.03;4909747;29;20048;-80
2023/09/07 06:10:11;;;;;;;3.30;1.30;;;;;;;38.77;16.34;100543.50;4940215;29;20043;-74
2023/09/07 06:12:37;;;;;;;4.07;2.65;;;;;;;38.83;16.13;100531.06;4926556;29;20050;-75
2023/09/07 06:15:04;;;;;;;3.20;1.38;;;;;;;39.26;15.90;100538.72;4942528;28;20086;-74
2023/09/07 06:17:32;;;;;;;9.90;5.70;;;;;;;39.92;15.33;100538.03;4942227;29;20054;-74
2023/09/07 06:20:01;;;;;;;3.22;1.60;;;;;;;40.58;14.90;100556.25;4928324;29;20047;-76
2023/09/07 06:22:29;;;;;;;6.43;4.20;;;;;;;40.63;15.22;100555.66;4930373;29;21363;-76
2023/09/07 06:24:55;;;;;;;2.15;1.45;;;;;;;41.08;14.48;100564.53;4920561;29;20134;-75
2023/09/07 06:27:24;;;;;;;3.10;1.38;;;;;;;41.34;14.33;100556.72;4930329;29;20062;-74
2023/09/07 06:29:50;;;;;;;2.75;1.20;;;;;;;40.81;14.65;100547.88;4944303;28;20625;-76
2023/09/07 06:32:18;;;;;;;7.15;5.65;;;;;;;41.47;13.53;100569.63;4946096;28;20413;-73
2023/09/07 06:34:45;;;;;;;1.40;1.30;;;;;;;41.90;13.35;100571.41;4919724;29;20047;-70
2023/09/07 06:37:11;;;;;;;2.65;1.30;;;;;;;42.31;13.07;100548.69;4944762;28;20450;-74
2023/09/07 06:39:38;;;;;;;3.40;1.90;;;;;;;42.79;12.60;100560.59;4926314;29;20489;-72
2023/09/07 06:42:04;;;;;;;5.32;1.40;;;;;;;42.53;12.58;100586.84;4926941;29;20046;-69
2023/09/07 06:44:38;;;;;;;4.95;2.17;;;;;;;41.44;13.46;100573.63;4942529;28;20481;-68
2023/09/07 06:47:04;;;;;;;4.40;1.45;;;;;;;41.01;13.59;100569.03;4928143;29;20126;-72
2023/09/07 06:49:31;;;;;;;1.70;1.20;;;;;;;41.22;13.33;100586.44;4927102;29;20474;-69
2023/09/07 06:51:57;;;;;;;3.17;1.10;;;;;;;41.67;13.32;100573.38;4926387;29;20040;-70
2023/09/07 06:54:24;;;;;;;3.20;1.45;;;;;;;42.45;12.78;100585.97;4910633;29;20649;-72
2023/09/07 06:56:50;;;;;;;2.75;1.10;;;;;;;42.21;11.91;100589.22;4942496;29;21473;-74
2023/09/07 06:59:16;;;;;;;1.48;1.15;;;;;;;42.16;12.58;100581.63;4926970;29;20051;-73
2023/09/07 07:01:42;;;;;;;3.75;1.75;;;;;;;42.64;12.40;100564.34;4930566;29;21331;-73
2023/09/07 07:04:09;;;;;;;2.13;1.17;;;;;;;43.30;11.86;100559.16;4931422;29;20043;-73
2023/09/07 07:06:35;;;;;;;2.72;2.20;;;;;;;43.54;11.51;100554.06;4909345;29;20051;-73
2023/09/07 07:09:01;;;;;;;2.88;1.10;;;;;;;44.03;10.82;100529.91;4928993;29;20046;-73
2023/09/07 07:11:28;;;;;;;3.88;1.27;;;;;;;44.73;11.20;100588.59;4943865;28;20042;-72
2023/09/07 07:13:54;;;;;;;3.63;1.60;;;;;;;45.15;10.80;100585.34;4943828;28;20044;-71
2023/09/07 07:16:21;;;;;;;6.07;2.30;;;;;;;45.90;10.24;100578.09;4927200;29;20059;-71
2023/09/07 07:18:47;;;;;;;2.17;1.98;;;;;;;46.35;9.73;100580.50;4942296;28;20040;-71
2023/09/07 07:21:15;;;;;;;1.65;1.13;;;;;;;46.20;10.05;100588.31;4896364;29;20040;-73
2023/09/07 07:23:42;;;;;;;2.50;1.70;;;;;;;46.08;9.98;100586.34;4928931;29;20066;-72
2023/09/07 07:26:09;;;;;;;3.65;1.60;;;;;;;46.62;9.55;100593.88;4911606;29;20134;-73
2023/09/07 07:28:35;;;;;;;2.88;1.42;;;;;;;46.87;9.09;100582.72;4927840;29;20584;-75
2023/09/07 07:31:09;;;;;;;1.83;1.67;;;;;;;47.01;9.16;100586.09;4912689;29;20044;-81
2023/09/07 07:33:36;;;;;;;4.13;1.30;;;;;;;46.12;9.12;100562.81;4928535;29;20047;-74
2023/09/07 07:36:04;;;;;;;1.58;1.42;;;;;;;45.34;9.07;100545.91;4925861;29;20036;-73
2023/09/07 07:38:31;;;;;;;1.35;1.08;;;;;;;43.97;9.71;100569.97;4916931;29;20126;-73
2023/09/07 07:40:57;;;;;;;3.20;1.70;;;;;;;43.37;10.35;100543.56;4926490;29;20047;-71
2023/09/07 07:43:24;;;;;;;5.72;1.40;;;;;;;43.66;10.34;100543.34;4924993;29;20067;-70
2023/09/07 07:45:53;;;;;;;3.30;1.25;;;;;;;44.75;9.73;100586.47;4908734;29;20080;-72
2023/09/07 07:48:20;;;;;;;1.55;1.27;;;;;;;45.17;9.51;100589.53;4926164;29;20067;-69
2023/09/07 07:50:46;;;;;;;2.67;1.02;;;;;;;45.20;9.51;100582.78;4943848;28;20071;-70
2023/09/07 07:53:14;;;;;;;2.92;1.40;;;;;;;45.28;9.86;100585.25;4925816;29;20054;-68
2023/09/07 07:55:42;;;;;;;2.83;1.20;;;;;;;45.90;9.09;100572.59;4910149;29;20111;-72
2023/09/07 07:58:12;;;;;;;3.60;1.38;;;;;;;46.43;9.36;100582.94;4925098;29;20054;-69
2023/09/07 08:00:47;;;;;;;2.92;1.40;;;;;;;47.30;8.73;100578.00;4911108;29;20505;-70
2023/09/07 08:03:15;;;;;;;3.13;1.40;;;;;;;45.96;9.23;100579.94;4926589;29;20050;-70
2023/09/07 08:05:42;;;;;;;3.78;1.70;;;;;;;45.75;9.27;100592.22;4926648;29;20044;-70
2023/09/07 08:08:09;;;;;;;4.22;1.65;;;;;;;45.56;9.23;100571.06;4924569;29;20040;-71
2023/09/07 08:10:37;;;;;;;3.67;1.63;;;;;;;45.16;9.09;100571.41;4940878;28;20630;-70
2023/09/07 08:13:04;;;;;;;5.07;1.98;;;;;;;45.96;9.08;100569.75;4926661;29;20040;-71
2023/09/07 08:15:34;;;;;;;5.53;1.70;;;;;;;46.30;8.80;100577.59;4941468;29;20048;-70
2023/09/07 08:18:01;;;;;;;4.28;1.30;;;;;;;45.33;9.28;100571.69;4927929;29;20081;-75
2023/09/07 08:20:29;;;;;;;4.47;1.27;;;;;;;44.66;9.25;100555.72;4924813;29;20556;-75
2023/09/07 08:22:55;;;;;;;2.75;1.20;;;;;;;43.18;9.40;100569.88;4895013;29;20044;-75
2023/09/07 08:25:23;;;;;;;1.88;1.23;;;;;;;43.31;9.92;100560.84;4926935;29;20036;-74
2023/09/07 08:27:50;;;;;;;1.70;1.10;;;;;;;42.89;10.14;100575.56;4940867;28;20055;-74
2023/09/07 08:30:18;;;;;;;1.33;1.20;;;;;;;42.63;9.96;100570.84;4923144;29;20622;-75
2023/09/07 08:32:47;;;;;;;1.80;1.40;;;;;;;43.46;9.84;100566.94;4909159;29;20044;-74
2023/09/07 08:35:13;;;;;;;4.50;1.48;;;;;;;44.53;9.57;100573.13;4925786;29;20466;-75
2023/09/07 08:37:40;;;;;;;2.63;1.17;;;;;;;45.05;9.04;100551.00;4925302;29;20043;-72
2023/09/07 08:40:07;;;;;;;4.22;1.45;;;;;;;43.10;9.87;100559.13;4891575;29;20046;-74
2023/09/07 08:42:36;;;;;;;5.38;1.33;;;;;;;41.78;11.02;100544.66;4926645;29;20054;-71
2023/09/07 08:45:06;;;;;;;4.00;1.00;;;;;;;40.76;10.58;100552.25;4928324;29;20035;-79
2023/09/07 08:47:34;;;;;;;3.20;1.20;;;;;;;41.44;10.95;100562.69;4912417;29;20295;-75
2023/09/07 08:50:01;;;;;;;2.80;1.10;;;;;;;42.25;10.50;100555.81;4912741;29;20035;-75
2023/09/07 08:52:29;;;;;;;4.20;1.40;;;;;;;42.15;10.32;100549.88;4909314;29;20466;-75
2023/09/07 08:54:58;;;;;;;4.20;1.20;;;;;;;41.77;9.97;100528.47;4909314;29;20099;-76
2023/09/07 08:57:25;;;;;;;2.17;1.30;;;;;;;41.59;11.08;100559.03;4910733;29;20585;-78
2023/09/07 08:59:51;;;;;;;1.45;1.10;;;;;;;42.10;10.51;100525.06;4925186;29;20047;-75
2023/09/07 09:02:17;;;;;;;4.60;1.65;;;;;;;43.31;9.83;100522.53;4941193;28;20095;-76
2023/09/07 09:04:42;;;;;;;4.90;1.60;;;;;;;44.39;8.92;100551.25;4940702;29;20074;-75
2023/09/07 09:07:11;;;;;;;8.15;1.20;;;;;;;42.85;9.20;100557.03;4910822;29;20178;-75
2023/09/07 09:09:38;;;;;;;2.53;1.10;;;;;;;40.60;10.68;100542.41;4925036;29;20044;-77
2023/09/07 09:12:14;;;;;;;3.33;1.13;;;;;;;41.28;10.25;100563.84;4924937;29;20036;-75
2023/09/07 09:14:44;;;;;;;5.72;1.10;;;;;;;41.00;9.92;100515.53;4916508;29;20043;-74
2023/09/07 09:17:15;;;;;;;4.78;1.13;;;;;;;39.42;11.13;100556.75;4927090;29;20964;-74
2023/09/07 09:19:41;;;;;;;6.00;1.25;;;;;;;38.69;11.39;100562.59;4929128;29;20424;-76
2023/09/07 09:22:07;;;;;;;3.58;1.10;;;;;;;37.20;12.36;100549.47;4942192;29;20080;-75
2023/09/07 09:24:34;;;;;;;5.82;1.13;;;;;;;35.55;13.01;100568.69;4910419;29;20051;-74
2023/09/07 09:27:01;;;;;;;3.40;1.55;;;;;;;35.43;13.44;100549.13;4929934;29;20043;-69
2023/09/07 09:29:27;;;;;;;7.13;1.30;;;;;;;34.27;13.73;100579.56;4925339;29;20039;-71
2023/09/07 09:31:53;;;;;;;3.50;1.30;;;;;;;33.34;14.48;100562.16;4909216;29;20077;-70
2023/09/07 09:34:20;;;;;;;3.97;1.40;;;;;;;34.91;14.18;100529.09;4927192;29;20064;-68
2023/09/07 09:36:45;;;;;;;8.38;1.55;;;;;;;35.51;13.73;100549.25;4927767;29;20046;-74
2023/09/07 09:39:22;;;;;;;2.92;1.08;;;;;;;34.15;14.10;100544.63;4923821;29;20044;-71
2023/09/07 09:41:49;;;;;;;3.80;1.02;;;;;;;32.65;15.02;100561.28;4925765;29;20051;-72
2023/09/07 09:44:16;;;;;;;3.92;1.00;;;;;;;30.90;15.63;100518.84;4924712;29;20071;-72
2023/09/07 09:46:43;;;;;;;1.90;0.88;;;;;;;30.91;16.57;100560.84;4946048;28;20039;-72
2023/09/07 09:49:12;;;;;;;1.77;0.80;;;;;;;33.18;16.22;100535.81;4941553;28;20039;-71
2023/09/07 09:51:39;;;;;;;6.00;1.13;;;;;;;34.46;14.52;100535.41;4928215;29;20241;-71
2023/09/07 09:54:06;;;;;;;3.92;0.95;;;;;;;35.12;14.53;100545.03;4914248;29;20046;-72
2023/09/07 09:56:32;;;;;;;2.72;1.10;;;;;;;34.81;14.32;100528.34;4930520;29;20048;-74
2023/09/07 09:58:58;;;;;;;3.08;1.02;;;;;;;35.96;13.51;100547.31;4912153;29;20174;-71
2023/09/07 10:01:24;;;;;;;2.97;0.93;;;;;;;35.89;12.89;100538.09;4947387;28;20119;-68
2023/09/07 10:03:53;;;;;;;2.40;1.00;;;;;;;35.17;13.59;100536.44;4948335;28;20063;-70
2023/09/07 10:06:23;;;;;;;4.22;0.98;;;;;;;33.73;14.23;100555.84;4931140;29;20067;-70
2023/09/07 10:09:01;;;;;;;2.55;0.88;;;;;;;31.90;15.72;100542.72;4931000;29;20039;-73
2023/09/07 10:11:32;;;;;;;1.38;0.80;;;;;;;31.89;16.48;100536.50;4929929;29;20044;-71
2023/09/07 10:13:59;;;;;;;;;;;;;;;32.40;16.17;100561.63;4946873;28;20046;-74
2023/09/07 10:16:26;;;;;;;3.15;1.20;;;;;;;32.71;15.56;100483.47;4930225;29;20007;-70
2023/09/07 10:18:53;;;;;;;7.00;1.00;;;;;;;32.52;15.50;100554.31;4946114;29;20039;-71
2023/09/07 10:21:26;;;;;;;3.70;1.05;;;;;;;32.03;16.20;100542.50;4946020;28;20051;-72
2023/09/07 10:23:53;;;;;;;2.65;1.55;;;;;;;32.21;16.64;100545.41;4930989;29;20052;-72
2023/09/07 10:26:23;;;;;;;1.05;0.85;;;;;;;32.53;16.07;100547.09;4945243;28;20040;-71
2023/09/07 10:29:00;;;;;;;3.75;1.00;;;;;;;32.61;16.20;100549.91;4929875;29;20044;-75
2023/09/07 10:31:27;;;;;;;1.85;0.98;;;;;;;31.89;16.06;100535.66;4931216;29;20098;-73
2023/09/07 10:33:53;;;;;;;4.63;0.85;;;;;;;30.94;16.24;100554.34;4946284;28;20478;-70
2023/09/07 10:36:26;;;;;;;2.10;0.90;;;;;;;29.83;17.02;100561.41;4929047;29;20051;-72
2023/09/07 10:38:55;;;;;;;2.45;0.90;;;;;;;28.68;17.94;100557.44;4930133;29;20039;-72
2023/09/07 10:41:22;;;;;;;7.43;1.30;;;;;;;27.98;18.76;100561.50;4913429;29;20052;-72
2023/09/07 10:43:53;;;;;;;3.22;1.30;;;;;;;27.55;19.09;100554.63;4946885;28;20063;-71
2023/09/07 10:46:21;;;;;;;3.15;0.98;;;;;;;26.90;20.10;100548.25;4902933;29;20043;-71
2023/09/07 10:48:56;;;;;;;1.92;1.30;;;;;;;26.48;20.57;100537.59;4945768;28;20378;-73
2023/09/07 10:51:22;;;;;;;3.35;1.40;;;;;;;26.40;20.65;100558.56;4881483;29;20044;-73
2023/09/07 10:53:48;;;;;;;5.05;1.65;;;;;;;26.29;20.96;100559.22;4931784;29;20047;-71
2023/09/07 10:56:14;;;;;;;2.92;1.50;;;;;;;26.12;20.82;100555.81;4944524;28;20399;-72
2023/09/07 10:58:42;;;;;;;3.13;1.33;;;;;;;25.81;21.15;100563.00;4943982;28;20091;-71
2023/09/07 11:01:09;;;;;;;4.68;1.40;;;;;;;25.14;22.06;100563.38;4928254;29;20519;-71
2023/09/07 11:03:36;;;;;;;2.92;1.63;;;;;;;24.74;22.23;100560.34;4930423;29;20506;-69
2023/09/07 11:06:10;;;;;;;4.35;2.10;;;;;;;24.16;23.11;100512.06;4946242;28;20127;-74
2023/09/07 11:08:36;;;;;;;5.78;1.83;;;;;;;24.23;22.83;100577.25;4928758;29;20408;-75
2023/09/07 11:11:02;;;;;;;7.03;1.50;;;;;;;23.94;23.10;100558.38;4913367;29;20067;-73
2023/09/07 11:13:28;;;;;;;3.00;1.40;;;;;;;23.76;23.56;100550.41;4913793;29;20046;-73
2023/09/07 11:15:57;;;;;;;2.00;1.17;;;;;;;23.58;23.50;100565.53;4930582;29;20048;-74
2023/09/07 11:18:23;;;;;;;2.25;0.90;;;;;;;23.62;23.96;100566.22;4928672;29;20526;-72
2023/09/07 11:20:51;;;;;;;3.28;1.00;;;;;;;23.54;24.07;100544.50;4930451;29;20145;-71
2023/09/07 11:23:18;;;;;;;2.13;0.90;;;;;;;23.63;24.33;100573.25;4895479;29;20565;-73
2023/09/07 11:25:46;;;;;;;1.85;0.70;;;;;;;23.55;24.29;100564.81;4927029;29;20046;-72
2023/09/07 11:28:12;;;;;;;1.83;0.80;;;;;;;23.45;24.66;100541.41;4927020;29;20146;-70